Rio Creek, Wisconsin
Current Conditions -  °F | °C
As of 5:15 AM on Tuesday 21 Oct 2014 (Local Time) from KSUE Reporting Station
Overcast Overcast  
Wind Chill: 37°   Ceiling: 1500
Heat Index: 45°   Visibility: 10mi
Dew Point: 37°   Wind: 17mph
Humidity: 76%   Direction: 10°N
Pressure: 30.11"   Gusts: 23mph
Location:  44.6016°N, 87.5149°W
Report Text: KSUE 211015Z AUTO 01015G20KT 10SM OVC015 07/03 A3011 RMK AO1
Loading
Personal Weather Stations






























Interactive Weather Map
Tropical Storm Tracking
New forecast layout! Learn more

10-Day Weather Forecast

Advertisements
Track Severe Weather on mobile